Yosemite National Park, CA

2:31 AM PDT on October 25, 2014 (GMT -0700)
RAWS WAWONA CA US | Change Station
CLOSE
Current Station
Personal Weather Station
Location: Tuolumne Meadows, CA
Elevation: 4309 ft
Nearby Weather Stations

Elev 4309 ft 37.53 °N, 119.64 °W | Updated 40 minutes ago

Clear
Clear
52 °F
Feels Like 52 °F
N
2
Wind Variable Wind from ESE
Gusts 5.0 mph

Today
High -- | Low -- °F
--% Chance of Precip.
Yesterday
High -- | Low -- °F
Precip. -- in
7:16 AM 6:07 PM
New Moon, 2% visible
Pressure 29.99 in
Visibility 10.0 miles
Clouds Few 5000 ft
Dew Point 24 °F
Humidity 33%
Rainfall 0.00 in
Snow Depth Not available.
UV 0 out of 12
Pollen 2.30 out of 12
Air Quality Not available.
Flu Activity Sporadic
METAR KO22 250915Z AUTO 17003KT 10SM FEW050 15/06 A2999 RMK AO1

More Conditions Fewer Conditions

Pressure 29.99 in
Visibility 10.0 miles
Clouds Few 5000 ft
Dew Point 24 °F
Humidity 33%
Rainfall 0.00 in
Snow Depth Not available.
UV 0 out of 12
Pollen 2.30 out of 12
Air Quality Not available.
Flu Activity Sporadic
METAR KO22 250915Z AUTO 17003KT 10SM FEW050 15/06 A2999 RMK AO1

More Conditions Fewer Conditions

10-Day Weather Forecast

Almanac

Astronomy

Oct. 25, 2014 Rise Set
Actual Time 7:16 AM PDT 6:07 PM PDT
Civil Twilight 6:49 AM PDT 6:34 PM PDT
Nautical Twilight 6:19 AM PDT 7:05 PM PDT
Astronomical Twilight 5:48 AM PDT 7:35 PM PDT
Moon 8:58 AM PDT 7:36 PM PDT
Length of Visible Light 11h 44m
Length of Day
10h 51m
Tomorrow will be 2m 13s shorter.
New Moon, 2% of the Moon is Illuminated
Today
New Moon
Oct 30
First Quarter
Nov 6
Full
Nov 14
Last Quarter
Nov 22
New

Today's Extremes

State Highs State Lows

Community

WunderPhotos

Upload Photos

1,764,796 photos uploaded!

Nearby

Snow Depth

Station Depth Elevation
Virginia Lakes Ridge 0 in 9200 ft
Leavitt Lake 1 in 9400 ft
Sonora Pass 0 in 8800 ft
Leavitt Meadows 0 in 7200 ft
Summit Meadow 1 in 9122 ft

Earthquake Activity

City Distance Mag. Time & Date
Coalinga, California 133 miles 2.5 11:01 PM PDT
2014-10-24
Kettleman City, California 131 miles 2.5 9:08 AM PDT
2014-10-22
Minimum magnitude displayed is 2.5.

Coastal Water Temperatures

Place Temperature
No Stations Reporting

Nearby Weather Stations